Alor Star, Malaysia

2:51 PM MYT on August 20, 2014 (GMT +0800)
Hat Yai International | Change Station
CLOSE
Current Station
Airport
Location: Hat Yai,
Elevation: 89 ft
Nearby Weather Stations

Elev 89 ft 6.93 °N, 100.39 °E | Updated 21 minutes ago

Overcast
Overcast
81 °F
Feels Like 88 °F
N
6
Wind Variable Wind from SE

Today
High -- | Low -- °F
--% Chance of Precip.
Yesterday
High -- | Low -- °F
Precip. -- in
7:12 AM 7:30 PM
Waning Crescent, 24% visible
Pressure 29.80 in
Visibility 6.2 miles
Clouds Few 1800 ft
Mostly Cloudy 12000 ft
Overcast 30000 ft
Heat Index 88 °F
Dew Point 79 °F
Humidity 94%
Rainfall 0.00 in
Snow Depth Not available.
UV 5 out of 12
Pollen Not available.
Air Quality Not available.
Flu Activity Not available.
METAR VTSS 200630Z 13005KT 9999 FEW018CB BKN120 OVC300 27/26 Q1009 A2981 NOSIG

More Conditions Fewer Conditions

Pressure 29.80 in
Visibility 6.2 miles
Clouds Few 1800 ft
Mostly Cloudy 12000 ft
Overcast 30000 ft
Heat Index 88 °F
Dew Point 79 °F
Humidity 94%
Rainfall 0.00 in
Snow Depth Not available.
UV 5 out of 12
Pollen Not available.
Air Quality Not available.
Flu Activity Not available.
METAR VTSS 200630Z 13005KT 9999 FEW018CB BKN120 OVC300 27/26 Q1009 A2981 NOSIG

More Conditions Fewer Conditions

10-Day Weather Forecast

Almanac

Astronomy

Aug. 20, 2014 Rise Set
Actual Time 7:12 AM MYT 7:30 PM MYT
Civil Twilight 6:51 AM MYT 7:52 PM MYT
Nautical Twilight 6:26 AM MYT 8:16 PM MYT
Astronomical Twilight 6:01 AM MYT 8:41 PM MYT
Moon 2:48 AM MYT 3:29 PM MYT
Length of Visible Light 13h 00m
Length of Day
12h 17m
Tomorrow will be 0m 19s shorter.
Waning Crescent, 24% of the Moon is Illuminated
Today
Waning Crescent
Aug 25
New
Sep 2
First Quarter
Sep 8
Full
Sep 15
Last Quarter

Yesterday's Extremes

Country Highs Country Lows

Community

WunderPhotos

Upload Photos

1,745,592 photos uploaded!

Nearby

Snow Depth

Not available.

Earthquake Activity

City Distance Mag. Time & Date
No recent earthquake activity has been reported nearby.
Minimum magnitude displayed is 2.5.

Coastal Water Temperatures

Place Temperature
No Stations Reporting

Nearby Weather Stations